Time;durP1;ratioP1;P1;durP2;ratioP2;P2;SDS_P1;SDS_P2;PMS_P1;PMS_P2;Temp;Humidity;BMP_temperature;BMP_pressure;BME280_temperature;BME280_humidity;BME280_pressure;Samples;Min_cycle;Max_cycle;Signal;HPM_P1;HPM_P2
2023/03/05 00:00:34;;;;;;;9.23;1.85;;;;;;;4.51;100.00;102399.78;4968791;28;20019;-61
2023/03/05 00:02:59;;;;;;;11.05;3.03;;;;;;;4.39;100.00;102392.59;4968639;28;20031;-62
2023/03/05 00:05:25;;;;;;;12.52;4.03;;;;;;;4.26;100.00;102388.91;4968882;28;20054;-62
2023/03/05 00:07:50;;;;;;;9.15;2.22;;;;;;;4.19;100.00;102392.28;4967899;28;20074;-61
2023/03/05 00:10:16;;;;;;;6.10;2.05;;;;;;;4.16;100.00;102386.13;4968163;28;20051;-62
2023/03/05 00:12:41;;;;;;;7.05;1.92;;;;;;;4.10;100.00;102383.44;4968521;28;20038;-62
2023/03/05 00:15:08;;;;;;;5.75;1.55;;;;;;;4.07;100.00;102377.28;4967402;28;20027;-61
2023/03/05 00:17:33;;;;;;;6.22;1.90;;;;;;;4.12;100.00;102378.25;4968534;28;20038;-63
2023/03/05 00:19:58;;;;;;;8.23;1.88;;;;;;;4.10;100.00;102369.50;4967973;28;20053;-62
2023/03/05 00:22:24;;;;;;;7.93;1.90;;;;;;;4.06;100.00;102371.16;4967601;28;20042;-62
2023/03/05 00:24:50;;;;;;;8.98;2.00;;;;;;;4.10;100.00;102362.56;4966933;28;20023;-62
2023/03/05 00:27:15;;;;;;;8.82;1.80;;;;;;;4.12;100.00;102367.81;4967792;28;20077;-62
2023/03/05 00:29:41;;;;;;;5.68;1.33;;;;;;;4.05;100.00;102372.03;4967868;28;20030;-63
2023/03/05 00:32:06;;;;;;;9.32;1.73;;;;;;;4.08;100.00;102368.59;4967889;28;20113;-61
2023/03/05 00:34:31;;;;;;;11.80;2.03;;;;;;;3.99;100.00;102369.31;4967541;28;20042;-61
2023/03/05 00:36:57;;;;;;;11.60;2.08;;;;;;;3.91;100.00;102366.56;4968691;28;20033;-61
2023/03/05 00:39:22;;;;;;;7.85;1.80;;;;;;;3.83;100.00;102365.53;4967159;28;20042;-62
2023/03/05 00:41:48;;;;;;;8.75;2.70;;;;;;;3.72;100.00;102358.41;4966571;28;20054;-61
2023/03/05 00:44:13;;;;;;;7.80;1.77;;;;;;;3.65;100.00;102356.53;4967551;28;20433;-61
2023/03/05 00:46:39;;;;;;;7.47;2.00;;;;;;;3.64;100.00;102357.34;4968373;28;20054;-63
2023/03/05 00:49:05;;;;;;;10.90;1.83;;;;;;;3.65;100.00;102352.16;4968813;28;20630;-61
2023/03/05 00:51:30;;;;;;;10.50;2.10;;;;;;;3.71;100.00;102351.44;4967718;28;20501;-63
2023/03/05 00:53:55;;;;;;;7.55;1.92;;;;;;;3.73;100.00;102348.84;4966838;28;20030;-63
2023/03/05 00:56:21;;;;;;;10.60;2.28;;;;;;;3.75;100.00;102345.41;4967501;28;20035;-62
2023/03/05 00:58:46;;;;;;;11.73;2.20;;;;;;;3.83;100.00;102342.06;4967706;28;20023;-63
2023/03/05 01:01:12;;;;;;;7.47;1.77;;;;;;;3.82;100.00;102335.97;4967888;28;20031;-61
2023/03/05 01:03:38;;;;;;;8.13;2.03;;;;;;;3.88;100.00;102332.59;4967809;28;20062;-61
2023/03/05 01:06:05;;;;;;;4.07;1.92;;;;;;;3.97;100.00;102337.13;4967836;28;20035;-60
2023/03/05 01:08:30;;;;;;;6.38;2.08;;;;;;;3.94;100.00;102335.31;4967419;28;20074;-62
2023/03/05 01:10:56;;;;;;;10.95;2.40;;;;;;;3.93;100.00;102333.56;4968015;28;20483;-62
2023/03/05 01:13:22;;;;;;;9.95;1.98;;;;;;;3.88;100.00;102332.59;4967190;28;20035;-61
2023/03/05 01:15:49;;;;;;;9.77;1.98;;;;;;;3.78;100.00;102329.84;4967811;28;20102;-63
2023/03/05 01:18:15;;;;;;;9.18;1.88;;;;;;;3.71;100.00;102332.28;4967861;28;20098;-61
2023/03/05 01:20:40;;;;;;;14.20;2.60;;;;;;;3.74;100.00;102328.03;4967601;28;20583;-61
2023/03/05 01:23:06;;;;;;;6.40;2.08;;;;;;;3.76;100.00;102323.69;4966893;28;20440;-61
2023/03/05 01:25:31;;;;;;;11.05;2.70;;;;;;;3.77;100.00;102327.19;4967425;28;20039;-61
2023/03/05 01:27:56;;;;;;;16.55;2.75;;;;;;;3.93;100.00;102317.91;4967466;28;20034;-62
2023/03/05 01:30:22;;;;;;;15.52;2.15;;;;;;;3.92;100.00;102311.81;4966989;28;20495;-61
2023/03/05 01:32:47;;;;;;;11.07;2.92;;;;;;;4.00;100.00;102317.16;4967692;28;20034;-60
2023/03/05 01:35:21;;;;;;;11.25;2.40;;;;;;;4.11;100.00;102309.53;4965928;28;20027;-61
2023/03/05 01:37:47;;;;;;;6.32;2.33;;;;;;;4.19;100.00;102303.56;4967759;28;20031;-61
2023/03/05 01:40:15;;;;;;;12.23;2.58;;;;;;;4.27;100.00;102304.56;4965915;28;20021;-61
2023/03/05 01:42:48;;;;;;;14.87;4.13;;;;;;;4.27;100.00;102302.84;4967213;28;20042;-62
2023/03/05 01:45:16;;;;;;;9.57;2.05;;;;;;;4.33;100.00;102290.75;4965180;28;20038;-61
2023/03/05 01:47:42;;;;;;;11.00;2.77;;;;;;;4.42;100.00;102289.16;4966924;28;20043;-62
2023/03/05 01:50:10;;;;;;;10.63;2.78;;;;;;;4.52;100.00;102286.69;4967726;28;20019;-60
2023/03/05 01:52:39;;;;;;;9.75;2.10;;;;;;;4.57;100.00;102278.91;4967513;28;20379;-63
2023/03/05 01:55:12;;;;;;;8.35;2.35;;;;;;;4.57;100.00;102277.16;4965755;28;20039;-61
2023/03/05 01:58:05;;;;;;;9.18;2.33;;;;;;;4.74;100.00;102282.66;4965840;28;20042;-61
2023/03/05 02:00:34;;;;;;;15.23;2.80;;;;;;;4.71;100.00;102273.88;4963943;28;20049;-61
2023/03/05 02:03:04;;;;;;;8.15;1.95;;;;;;;4.43;100.00;102274.38;4950406;28;20061;-62
2023/03/05 02:05:32;;;;;;;7.03;2.20;;;;;;;4.47;100.00;102268.34;4965517;28;20081;-60
2023/03/05 02:07:59;;;;;;;4.60;2.13;;;;;;;4.41;100.00;102260.41;4967078;28;20047;-61
2023/03/05 02:10:29;;;;;;;11.55;2.72;;;;;;;4.41;100.00;102252.59;4966965;28;20061;-61
2023/03/05 02:12:58;;;;;;;10.30;2.53;;;;;;;4.26;100.00;102250.63;5040090;22;20570;-69
2023/03/05 02:15:24;;;;;;;5.95;2.13;;;;;;;4.05;100.00;102254.66;4947859;28;20123;-72
2023/03/05 02:17:49;;;;;;;6.07;1.90;;;;;;;3.90;100.00;102244.84;4947645;28;20522;-71
2023/03/05 02:20:21;;;;;;;5.13;1.83;;;;;;;3.85;100.00;102234.31;4946223;28;20497;-72
2023/03/05 02:22:46;;;;;;;8.25;1.90;;;;;;;3.82;100.00;102233.41;4947169;28;20042;-70
2023/03/05 02:25:17;;;;;;;8.73;2.10;;;;;;;3.69;100.00;102230.59;4947720;28;20027;-71
2023/03/05 02:28:05;;;;;;;10.23;2.72;;;;;;;3.53;100.00;102227.69;4947573;28;20028;-71
2023/03/05 02:30:31;;;;;;;9.13;2.92;;;;;;;3.54;100.00;102226.88;4943097;28;20122;-71
2023/03/05 02:32:57;;;;;;;8.02;2.45;;;;;;;3.51;100.00;102216.38;4947080;28;20114;-72
2023/03/05 02:35:23;;;;;;;7.68;2.17;;;;;;;3.41;100.00;102214.47;4947150;28;20226;-70
2023/03/05 02:37:48;;;;;;;10.45;2.65;;;;;;;3.45;100.00;102210.16;4947368;28;20027;-71
2023/03/05 02:40:14;;;;;;;11.13;2.17;;;;;;;3.44;100.00;102209.31;4945827;29;20364;-70
2023/03/05 02:42:39;;;;;;;9.48;2.20;;;;;;;3.39;100.00;102201.41;4945935;29;20065;-70
2023/03/05 02:45:05;;;;;;;9.05;2.22;;;;;;;3.41;100.00;102204.03;4947192;28;20106;-71
2023/03/05 02:47:31;;;;;;;10.27;1.80;;;;;;;3.45;100.00;102200.63;4946916;28;20395;-70
2023/03/05 02:49:56;;;;;;;8.02;1.98;;;;;;;3.44;100.00;102198.00;4947020;28;20039;-71
2023/03/05 02:52:22;;;;;;;8.98;2.42;;;;;;;3.44;100.00;102191.06;4946836;28;20042;-72
2023/03/05 02:54:48;;;;;;;10.00;2.20;;;;;;;3.55;100.00;102193.84;4947294;28;20023;-73
2023/03/05 02:57:13;;;;;;;9.85;2.30;;;;;;;3.67;100.00;102193.16;4947017;28;20035;-72
2023/03/05 02:59:39;;;;;;;10.85;1.80;;;;;;;3.77;100.00;102182.03;4945425;28;20376;-70
2023/03/05 03:02:04;;;;;;;11.45;2.67;;;;;;;3.68;100.00;102181.91;4947334;29;20043;-70
2023/03/05 03:04:29;;;;;;;5.70;2.05;;;;;;;3.75;100.00;102177.66;4947253;29;20058;-69
2023/03/05 03:06:55;;;;;;;12.85;2.97;;;;;;;3.88;100.00;102168.28;4950023;29;20031;-70
2023/03/05 03:09:20;;;;;;;9.60;2.05;;;;;;;3.92;100.00;102170.97;4950014;29;20505;-71
2023/03/05 03:11:45;;;;;;;4.60;2.08;;;;;;;3.90;100.00;102162.28;4953656;28;20434;-72
2023/03/05 03:14:11;;;;;;;10.80;2.47;;;;;;;3.90;100.00;102161.38;4950901;28;20475;-70
2023/03/05 03:16:36;;;;;;;9.93;2.28;;;;;;;3.94;100.00;102159.72;4970195;28;20026;-72
2023/03/05 03:19:02;;;;;;;6.97;2.10;;;;;;;3.86;100.00;102154.38;4952903;28;20033;-71
2023/03/05 03:21:27;;;;;;;4.43;2.13;;;;;;;3.93;100.00;102151.00;4968755;28;20042;-67
2023/03/05 03:23:52;;;;;;;7.95;2.50;;;;;;;3.99;100.00;102145.88;4952456;28;20031;-69
2023/03/05 03:26:18;;;;;;;10.82;2.22;;;;;;;4.10;100.00;102145.16;4968573;28;20027;-70
2023/03/05 03:28:44;;;;;;;13.18;2.85;;;;;;;4.17;100.00;102145.28;4968457;28;20113;-71
2023/03/05 03:31:09;;;;;;;7.35;2.22;;;;;;;4.28;100.00;102148.00;4969707;28;20031;-71
2023/03/05 03:33:35;;;;;;;10.88;2.00;;;;;;;4.34;100.00;102152.47;4969992;28;20042;-72
2023/03/05 03:36:00;;;;;;;5.38;1.60;;;;;;;4.47;100.00;102163.94;4969384;28;20485;-71
2023/03/05 03:38:26;;;;;;;7.15;1.95;;;;;;;4.49;100.00;102169.16;4968778;28;20031;-69
2023/03/05 03:40:51;;;;;;;6.70;2.50;;;;;;;4.55;100.00;102159.66;4968346;28;20037;-71
2023/03/05 03:43:16;;;;;;;6.60;2.28;;;;;;;4.62;100.00;102151.91;4968177;28;20026;-71
2023/03/05 03:45:42;;;;;;;10.90;3.00;;;;;;;4.66;100.00;102146.75;4968152;28;20026;-72
2023/03/05 03:48:09;;;;;;;6.57;1.98;;;;;;;4.66;100.00;102148.47;4969582;28;20451;-71
2023/03/05 03:50:37;;;;;;;6.25;2.38;;;;;;;4.74;100.00;102146.84;4953141;28;20026;-72
2023/03/05 03:53:03;;;;;;;5.68;1.80;;;;;;;4.80;100.00;102139.09;4952961;28;20023;-69
2023/03/05 03:55:28;;;;;;;7.70;1.95;;;;;;;4.78;100.00;102137.31;4971349;28;20080;-70
2023/03/05 03:57:53;;;;;;;8.70;1.70;;;;;;;4.78;100.00;102138.19;4953479;28;20381;-70
2023/03/05 04:00:19;;;;;;;6.50;3.17;;;;;;;4.77;100.00;102130.34;4970460;28;20031;-69
2023/03/05 04:02:45;;;;;;;7.05;1.48;;;;;;;4.69;100.00;102130.25;4970939;28;20493;-72
2023/03/05 04:05:10;;;;;;;5.18;1.60;;;;;;;4.70;100.00;102128.50;4969282;28;20025;-70
2023/03/05 04:07:35;;;;;;;4.72;1.15;;;;;;;4.67;100.00;102118.91;4970612;28;20033;-72
2023/03/05 04:10:01;;;;;;;4.60;1.10;;;;;;;4.68;100.00;102120.66;4970106;28;20114;-69
2023/03/05 04:12:26;;;;;;;6.80;1.38;;;;;;;4.77;100.00;102112.94;4948568;28;20055;-71
2023/03/05 04:14:51;;;;;;;6.45;1.40;;;;;;;4.78;100.00;102106.84;4948776;28;20054;-70
2023/03/05 04:17:17;;;;;;;5.63;2.08;;;;;;;4.76;100.00;102110.31;4931370;29;20058;-70
2023/03/05 04:19:42;;;;;;;1.23;1.00;;;;;;;4.84;100.00;102099.94;4949334;28;20027;-71
2023/03/05 04:22:15;;;;;;;7.57;1.60;;;;;;;4.87;100.00;102094.72;4932724;29;20036;-69
2023/03/05 04:24:41;;;;;;;7.80;1.52;;;;;;;4.92;100.00;102095.66;4948135;28;20031;-71
2023/03/05 04:27:06;;;;;;;6.65;1.35;;;;;;;4.87;100.00;102093.00;4948766;28;20088;-72
2023/03/05 04:29:32;;;;;;;6.25;1.33;;;;;;;4.82;100.00;102094.72;4947786;28;20057;-70
2023/03/05 04:31:58;;;;;;;5.85;1.15;;;;;;;4.67;100.00;102082.38;4949118;28;20689;-71
2023/03/05 04:34:23;;;;;;;6.57;2.20;;;;;;;4.56;100.00;102082.25;4948494;28;20106;-72
2023/03/05 04:36:49;;;;;;;6.95;1.77;;;;;;;4.52;100.00;102078.69;4949356;28;20031;-69
2023/03/05 04:39:14;;;;;;;7.22;1.90;;;;;;;4.52;100.00;102081.31;4948950;28;20027;-69
2023/03/05 04:41:39;;;;;;;7.63;1.40;;;;;;;4.43;100.00;102079.47;4946658;29;20446;-70
2023/03/05 04:44:05;;;;;;;6.90;1.80;;;;;;;4.36;100.00;102077.66;4948636;28;20437;-71
2023/03/05 04:46:30;;;;;;;7.03;2.03;;;;;;;4.24;100.00;102080.13;4948501;28;20383;-71
2023/03/05 04:48:56;;;;;;;7.68;1.38;;;;;;;4.12;100.00;102078.25;4948556;28;20023;-69
2023/03/05 04:51:21;;;;;;;9.75;1.70;;;;;;;4.10;100.00;102078.22;4948799;28;20031;-70
2023/03/05 04:53:47;;;;;;;8.20;1.90;;;;;;;4.15;100.00;102076.53;4948516;28;20019;-71
2023/03/05 04:56:12;;;;;;;6.07;2.05;;;;;;;4.22;100.00;102074.00;4948662;29;20479;-69
2023/03/05 04:58:38;;;;;;;11.45;1.80;;;;;;;4.16;100.00;102069.59;4948359;28;20027;-70
2023/03/05 05:01:04;;;;;;;5.32;2.28;;;;;;;4.19;100.00;102059.19;4948779;28;20490;-71
2023/03/05 05:03:30;;;;;;;8.02;2.47;;;;;;;4.28;100.00;102064.50;4948565;28;20031;-70
2023/03/05 05:05:57;;;;;;;6.32;2.00;;;;;;;4.36;100.00;102067.22;4948134;28;20528;-70
2023/03/05 05:08:23;;;;;;;9.93;2.17;;;;;;;4.12;100.00;102075.63;4948850;28;20137;-70
2023/03/05 05:10:56;;;;;;;5.18;1.73;;;;;;;4.32;100.00;102081.09;4947709;29;20547;-71
2023/03/05 05:13:22;;;;;;;8.70;2.28;;;;;;;4.49;100.00;102059.53;4946715;28;20122;-71
2023/03/05 05:15:47;;;;;;;5.80;1.02;;;;;;;4.52;100.00;102054.34;4947930;28;20173;-68
2023/03/05 05:18:13;;;;;;;4.68;1.05;;;;;;;4.62;100.00;102043.16;4948909;28;20023;-71
2023/03/05 05:20:38;;;;;;;2.30;0.85;;;;;;;4.61;100.00;102041.38;4948421;28;20031;-67
2023/03/05 05:23:03;;;;;;;1.50;0.80;;;;;;;4.50;100.00;102032.56;4948984;28;20581;-72
2023/03/05 05:25:29;;;;;;;3.50;0.77;;;;;;;4.36;100.00;102033.28;4948212;28;20033;-70
2023/03/05 05:27:54;;;;;;;1.63;0.70;;;;;;;4.26;100.00;102031.44;4945311;28;20043;-67
2023/03/05 05:30:19;;;;;;;0.88;0.47;;;;;;;4.24;100.00;102031.41;4947906;28;20069;-71
2023/03/05 05:32:45;;;;;;;4.22;0.57;;;;;;;4.13;100.00;102038.25;4949649;28;20039;-71
2023/03/05 05:35:10;;;;;;;1.15;0.98;;;;;;;4.09;100.00;102028.63;4949835;28;20023;-70
2023/03/05 05:37:35;;;;;;;2.35;0.73;;;;;;;4.10;100.00;102033.00;4952057;28;20050;-70
2023/03/05 05:40:01;;;;;;;2.80;1.00;;;;;;;4.15;100.00;102028.69;4949521;28;20038;-69
2023/03/05 05:42:28;;;;;;;1.30;1.02;;;;;;;4.12;100.00;102024.31;4948384;28;20080;-71
2023/03/05 05:44:54;;;;;;;6.90;1.08;;;;;;;4.08;100.00;102030.34;4950147;28;20106;-67
2023/03/05 05:47:20;;;;;;;4.95;1.10;;;;;;;3.99;100.00;102020.69;4947822;28;20039;-70
2023/03/05 05:49:45;;;;;;;6.88;1.58;;;;;;;3.97;100.00;102021.53;4946651;28;20027;-70
2023/03/05 05:52:12;;;;;;;3.70;1.15;;;;;;;3.92;100.00;102016.25;4945234;28;20125;-70
2023/03/05 05:54:37;;;;;;;4.70;1.55;;;;;;;3.94;100.00;102011.91;4946401;29;20435;-71
2023/03/05 05:57:03;;;;;;;6.38;1.50;;;;;;;3.98;100.00;102003.28;4945689;28;20035;-70
2023/03/05 05:59:28;;;;;;;12.45;1.60;;;;;;;3.96;100.00;102009.31;4946383;29;20073;-71
2023/03/05 06:01:54;;;;;;;4.68;1.17;;;;;;;3.88;100.00;102007.50;4946732;29;20034;-70
2023/03/05 06:04:19;;;;;;;3.85;1.35;;;;;;;3.92;100.00;102008.44;4931356;29;20028;-70
2023/03/05 06:06:45;;;;;;;1.83;1.30;;;;;;;3.97;100.00;102011.94;4931592;29;20031;-70
2023/03/05 06:09:10;;;;;;;5.63;1.30;;;;;;;3.88;100.00;102019.66;4944993;29;20463;-71
2023/03/05 06:11:36;;;;;;;3.35;1.35;;;;;;;3.94;100.00;102018.88;4944692;28;20031;-70
2023/03/05 06:14:02;;;;;;;2.78;1.58;;;;;;;3.90;100.00;102008.41;4965539;28;20092;-70
2023/03/05 06:16:28;;;;;;;6.43;1.60;;;;;;;3.95;100.00;102008.47;4948347;28;20034;-72
2023/03/05 06:18:53;;;;;;;4.70;1.42;;;;;;;3.95;100.00;102016.28;4965596;28;20019;-69
2023/03/05 06:21:20;;;;;;;7.43;1.85;;;;;;;3.98;100.00;102020.66;4965579;28;20073;-71
2023/03/05 06:23:46;;;;;;;7.93;1.60;;;;;;;4.10;100.00;102013.00;4949755;28;20509;-71
2023/03/05 06:26:15;;;;;;;2.72;1.30;;;;;;;4.29;100.00;102013.19;4966151;28;20482;-72
2023/03/05 06:28:40;;;;;;;4.40;1.08;;;;;;;4.35;100.00;102017.59;4948952;28;20023;-71
2023/03/05 06:31:24;;;;;;;3.30;1.48;;;;;;;4.45;100.00;102022.06;4965707;28;20023;-70
2023/03/05 06:33:50;;;;;;;2.28;1.13;;;;;;;4.61;100.00;102015.28;4948841;28;20031;-72
2023/03/05 06:36:17;;;;;;;6.53;2.25;;;;;;;4.67;100.00;102014.47;4966598;28;20039;-71
2023/03/05 06:38:42;;;;;;;4.80;2.65;;;;;;;4.77;100.00;102011.09;4954519;28;20084;-72
2023/03/05 06:41:11;;;;;;;3.75;1.90;;;;;;;4.80;100.00;102016.34;4950820;28;20471;-71
2023/03/05 06:43:38;;;;;;;2.78;1.08;;;;;;;4.73;100.00;102017.13;4948234;28;20034;-68
2023/03/05 06:46:11;;;;;;;2.88;1.08;;;;;;;4.78;100.00;102007.63;4949412;28;20493;-70
2023/03/05 06:48:36;;;;;;;3.75;0.63;;;;;;;4.85;100.00;102008.53;4967267;28;20023;-72
2023/03/05 06:51:02;;;;;;;4.53;1.13;;;;;;;4.73;100.00;101998.84;4948947;28;20025;-70
2023/03/05 06:53:28;;;;;;;0.80;0.80;;;;;;;4.82;100.00;102005.03;4966965;28;20085;-70
2023/03/05 06:55:53;;;;;;;5.15;1.17;;;;;;;4.80;100.00;102005.91;4966437;28;20033;-69
2023/03/05 06:58:19;;;;;;;3.20;1.20;;;;;;;4.74;100.00;102005.84;4964003;28;20022;-70
2023/03/05 07:00:45;;;;;;;3.55;0.70;;;;;;;4.75;100.00;102002.34;4948753;28;20106;-69
2023/03/05 07:03:10;;;;;;;2.92;0.50;;;;;;;4.72;100.00;102006.69;4965618;28;20102;-70
2023/03/05 07:05:40;;;;;;;3.38;0.63;;;;;;;4.84;100.00;102003.31;4948866;28;20122;-69
2023/03/05 07:08:06;;;;;;;1.90;0.82;;;;;;;4.93;100.00;102001.66;4947867;28;20019;-68
2023/03/05 07:10:32;;;;;;;3.88;1.15;;;;;;;4.94;100.00;101994.69;4948264;28;20031;-70
2023/03/05 07:12:57;;;;;;;3.17;1.85;;;;;;;4.99;100.00;101998.22;5012187;28;20094;-71
2023/03/05 07:15:23;;;;;;;2.22;0.80;;;;;;;5.15;100.00;101995.72;4948114;28;20505;-68
2023/03/05 07:17:48;;;;;;;5.07;0.80;;;;;;;5.23;100.00;101996.66;4948021;28;20380;-71
2023/03/05 07:20:13;;;;;;;2.22;0.75;;;;;;;5.34;100.00;101998.47;4964346;28;20023;-71
2023/03/05 07:22:39;;;;;;;1.25;0.70;;;;;;;5.33;100.00;101995.00;4965138;28;20061;-70
2023/03/05 07:25:05;;;;;;;1.75;0.70;;;;;;;5.34;100.00;101993.22;4952559;28;20046;-69
2023/03/05 07:27:34;;;;;;;5.75;0.82;;;;;;;5.35;100.00;101997.59;4963724;28;20307;-72
2023/03/05 07:29:59;;;;;;;2.00;1.33;;;;;;;5.13;100.00;102010.50;4965487;28;20022;-70
2023/03/05 07:32:25;;;;;;;4.43;1.17;;;;;;;5.17;100.00;102002.72;4964680;28;20049;-72
2023/03/05 07:34:50;;;;;;;1.90;1.17;;;;;;;5.18;100.00;102003.59;4964506;28;20030;-69
2023/03/05 07:37:15;;;;;;;2.05;1.13;;;;;;;5.11;100.00;101999.16;4947554;28;20022;-70
2023/03/05 07:39:41;;;;;;;5.63;1.15;;;;;;;5.16;100.00;102000.09;4965300;28;20399;-69
2023/03/05 07:42:06;;;;;;;7.40;1.30;;;;;;;4.89;100.00;102002.50;4965652;28;20027;-70
2023/03/05 07:44:31;;;;;;;1.48;0.93;;;;;;;4.85;100.00;102005.06;4964818;28;20081;-70
2023/03/05 07:46:57;;;;;;;3.90;0.70;;;;;;;5.15;100.00;101986.13;4965098;28;20026;-69
2023/03/05 07:49:22;;;;;;;5.03;1.30;;;;;;;5.25;100.00;102002.78;4940948;28;20461;-68
2023/03/05 07:51:48;;;;;;;4.50;1.10;;;;;;;5.30;100.00;101990.59;4960294;28;20031;-69
2023/03/05 07:54:13;;;;;;;4.88;1.10;;;;;;;5.36;100.00;101991.50;4952464;28;20015;-70
2023/03/05 07:56:39;;;;;;;3.10;1.00;;;;;;;5.76;100.00;101989.13;4951977;28;20082;-68
2023/03/05 07:59:07;;;;;;;1.15;0.90;;;;;;;5.79;100.00;101983.91;4969202;28;20122;-69
2023/03/05 08:01:33;;;;;;;5.00;0.90;;;;;;;5.95;100.00;101983.97;4950417;28;20552;-68
2023/03/05 08:03:59;;;;;;;1.75;0.90;;;;;;;5.89;100.00;101979.59;4967477;28;20058;-70
2023/03/05 08:06:24;;;;;;;4.22;0.95;;;;;;;5.89;100.00;101978.69;4968662;28;20118;-69
2023/03/05 08:08:50;;;;;;;1.65;0.98;;;;;;;6.13;100.00;101977.06;4969104;28;20600;-71
2023/03/05 08:11:15;;;;;;;4.50;1.15;;;;;;;6.42;100.00;101976.28;4970282;28;20037;-68
2023/03/05 08:13:42;;;;;;;2.85;0.77;;;;;;;6.51;100.00;101968.44;4970291;28;20141;-71
2023/03/05 08:16:13;;;;;;;5.50;0.73;;;;;;;6.51;100.00;101972.81;4972893;28;20023;-70
2023/03/05 08:18:39;;;;;;;2.83;0.73;;;;;;;6.53;100.00;101966.69;4955398;28;20023;-69
2023/03/05 08:21:05;;;;;;;0.65;0.50;;;;;;;6.66;100.00;101967.59;4970623;28;20085;-69
2023/03/05 08:23:33;;;;;;;2.38;0.70;;;;;;;6.73;100.00;101970.19;4970739;28;20117;-68
2023/03/05 08:25:58;;;;;;;3.60;1.13;;;;;;;6.57;100.00;101968.44;4952784;28;20030;-69
2023/03/05 08:28:24;;;;;;;2.65;0.93;;;;;;;6.76;100.00;101964.97;4967816;28;20744;-69
2023/03/05 08:30:49;;;;;;;1.80;0.70;;;;;;;6.86;100.00;101955.38;4969087;28;20022;-71
2023/03/05 08:33:18;;;;;;;0.95;0.60;;;;;;;7.00;100.00;101966.72;4969759;28;20490;-69
2023/03/05 08:35:44;;;;;;;1.27;0.70;;;;;;;6.81;100.00;101958.84;4969681;28;20453;-68
2023/03/05 08:38:09;;;;;;;2.65;0.90;;;;;;;6.80;100.00;101958.84;4967722;28;20114;-69
2023/03/05 08:40:34;;;;;;;1.52;0.63;;;;;;;7.00;100.00;101956.22;4968693;28;20106;-71
2023/03/05 08:43:00;;;;;;;6.63;1.00;;;;;;;7.13;100.00;101956.22;4966373;28;20023;-70
2023/03/05 08:45:26;;;;;;;1.52;0.90;;;;;;;7.27;100.00;101945.69;4967086;28;20349;-70
2023/03/05 08:47:56;;;;;;;4.40;0.65;;;;;;;7.58;100.00;101949.09;4967263;28;20023;-67
2023/03/05 08:50:22;;;;;;;1.08;0.93;;;;;;;7.71;100.00;101938.59;4966382;28;20448;-70
2023/03/05 08:52:48;;;;;;;3.72;0.60;;;;;;;7.84;100.00;101944.63;4967113;28;20526;-70
2023/03/05 08:55:13;;;;;;;2.03;0.85;;;;;;;7.84;100.00;101942.91;4966671;28;20027;-70
2023/03/05 08:57:39;;;;;;;2.20;0.70;;;;;;;7.80;100.00;101937.66;4966099;28;20106;-68
2023/03/05 09:00:06;;;;;;;4.22;1.00;;;;;;;7.92;100.00;101936.72;4949948;28;20466;-69
2023/03/05 09:02:31;;;;;;;5.32;0.82;;;;;;;7.56;100.00;101929.88;4966282;28;20031;-69
2023/03/05 09:04:56;;;;;;;5.43;1.42;;;;;;;7.91;100.00;101932.34;4966470;28;20030;-69
2023/03/05 09:07:22;;;;;;;2.75;0.82;;;;;;;7.98;100.00;101934.09;4966811;28;20034;-68
2023/03/05 09:09:47;;;;;;;3.70;1.25;;;;;;;8.09;100.00;101934.00;4967181;28;20763;-69
2023/03/05 09:12:14;;;;;;;5.30;0.98;;;;;;;7.87;100.00;101928.00;4965465;28;20061;-70
2023/03/05 09:14:40;;;;;;;3.60;0.80;;;;;;;8.23;100.00;101933.94;4966200;28;20441;-70
2023/03/05 09:17:06;;;;;;;4.18;0.70;;;;;;;8.46;100.00;101925.03;4966973;28;20023;-70
2023/03/05 09:19:32;;;;;;;0.80;0.43;;;;;;;8.52;100.00;101927.56;4966184;28;20023;-67
2023/03/05 09:21:57;;;;;;;10.57;1.10;;;;;;;8.27;100.00;101926.88;4966660;28;20092;-71
2023/03/05 09:24:22;;;;;;;7.22;0.77;;;;;;;8.63;100.00;101924.03;4966955;28;20026;-68
2023/03/05 09:26:48;;;;;;;7.20;1.05;;;;;;;8.67;100.00;101917.88;4965692;28;20022;-71
2023/03/05 09:29:13;;;;;;;3.92;0.88;;;;;;;8.62;100.00;101917.03;4966385;28;20084;-69
2023/03/05 09:31:38;;;;;;;1.38;0.65;;;;;;;8.49;100.00;101921.50;4966639;28;20106;-68
2023/03/05 09:34:05;;;;;;;9.93;0.85;;;;;;;8.26;100.00;101919.91;4966584;28;20026;-70
2023/03/05 09:36:31;;;;;;;7.88;1.08;;;;;;;8.31;100.00;101918.13;4949164;28;20105;-70
2023/03/05 09:38:56;;;;;;;4.13;0.90;;;;;;;8.28;100.00;101919.00;4949245;28;20109;-69
2023/03/05 09:41:54;;;;;;;6.72;1.10;;;;;;;8.32;100.00;101914.59;4956857;28;20476;-68
2023/03/05 09:44:31;;;;;;;2.30;1.17;;;;;;;8.16;100.00;101919.94;4966508;28;20035;-69
2023/03/05 09:47:12;;;;;;;4.03;1.35;;;;;;;7.82;100.00;101926.28;4966501;28;20042;-69
2023/03/05 09:49:46;;;;;;;2.88;0.63;;;;;;;7.62;100.00;101920.25;4965909;28;20019;-69
2023/03/05 09:52:20;;;;;;;3.95;0.80;;;;;;;7.43;100.00;101912.44;4965688;28;20027;-71
2023/03/05 09:54:51;;;;;;;3.10;0.60;;;;;;;7.22;100.00;101922.09;4946187;28;20027;-71
2023/03/05 09:57:24;;;;;;;3.08;0.50;;;;;;;7.19;100.00;101922.09;4965739;28;20023;-69
2023/03/05 10:00:06;;;;;;;4.30;0.93;;;;;;;7.00;100.00;101923.91;4966511;28;20030;-70
2023/03/05 10:02:34;;;;;;;4.85;0.88;;;;;;;6.31;100.00;101930.03;4963665;28;20031;-69
2023/03/05 10:05:14;;;;;;;4.50;1.25;;;;;;;5.92;100.00;101926.41;4963533;28;20122;-70
2023/03/05 10:07:42;;;;;;;2.17;0.82;;;;;;;5.65;100.00;101931.53;4950320;28;20062;-69
2023/03/05 10:10:17;;;;;;;3.00;1.00;;;;;;;4.99;100.00;101917.22;4945577;28;20062;-68
2023/03/05 10:12:44;;;;;;;1.13;0.70;;;;;;;5.03;100.00;101912.91;5028291;28;20137;-67
2023/03/05 10:15:15;;;;;;;1.60;0.85;;;;;;;5.11;100.00;101918.16;4963112;28;20027;-70
2023/03/05 10:17:54;;;;;;;2.20;1.02;;;;;;;5.55;100.00;101917.56;4956519;28;20049;-69
2023/03/05 10:20:49;;;;;;;1.05;0.65;;;;;;;5.60;100.00;101911.47;4941007;28;20390;-69
2023/03/05 10:23:17;;;;;;;3.15;0.80;;;;;;;5.76;100.00;101905.44;4960168;28;20368;-68
2023/03/05 10:26:04;;;;;;;2.47;0.90;;;;;;;6.15;100.00;101900.34;4961386;28;20045;-69
2023/03/05 10:29:02;;;;;;;1.98;0.90;;;;;;;6.65;100.00;101894.25;4957347;28;20508;-69
2023/03/05 10:31:39;;;;;;;1.42;0.95;;;;;;;7.05;100.00;101885.47;4945382;28;20387;-69
2023/03/05 10:34:13;;;;;;;1.38;0.90;;;;;;;7.44;100.00;101877.47;4956992;28;20105;-70
2023/03/05 10:37:06;;;;;;;2.20;1.10;;;;;;;7.52;100.00;101880.94;4956129;28;20494;-68
2023/03/05 10:39:34;;;;;;;2.20;0.88;;;;;;;7.94;100.00;101878.09;4958858;28;20119;-69
2023/03/05 10:42:21;;;;;;;2.58;0.90;;;;;;;7.88;100.00;101874.63;4954703;28;20020;-70
2023/03/05 10:44:51;;;;;;;2.45;1.05;;;;;;;8.08;100.00;101869.25;4961295;28;20030;-70
2023/03/05 10:47:39;;;;;;;4.30;1.15;;;;;;;8.62;100.00;101862.75;4956843;28;20030;-67
2023/03/05 10:50:24;;;;;;;2.17;1.20;;;;;;;8.96;100.00;101858.91;4962390;28;20030;-69
2023/03/05 10:53:12;;;;;;;3.58;1.25;;;;;;;8.91;100.00;101858.09;4959295;28;20050;-67
2023/03/05 10:55:38;;;;;;;2.40;0.70;;;;;;;9.40;98.89;101848.75;4940261;28;20042;-68
2023/03/05 10:58:11;;;;;;;1.02;0.90;;;;;;;9.37;96.42;101847.91;4939517;28;20020;-69
2023/03/05 11:00:37;;;;;;;8.40;1.15;;;;;;;9.18;98.53;101845.53;4955738;28;20023;-67
2023/03/05 11:03:07;;;;;;;3.08;1.10;;;;;;;9.07;98.97;101830.75;4955245;28;20038;-68
2023/03/05 11:05:39;;;;;;;1.77;0.65;;;;;;;9.58;96.84;101831.84;4943936;28;20035;-69
2023/03/05 11:08:22;;;;;;;5.10;1.17;;;;;;;9.88;95.77;101827.94;4954267;28;20018;-68
2023/03/05 11:11:19;;;;;;;2.00;0.88;;;;;;;9.92;94.55;101825.22;4945795;28;20433;-67
2023/03/05 11:13:51;;;;;;;4.07;1.02;;;;;;;10.50;89.26;101821.69;4937927;28;20050;-69
2023/03/05 11:16:25;;;;;;;2.22;0.77;;;;;;;10.71;88.71;101814.28;4957398;28;20026;-68
2023/03/05 11:19:36;;;;;;;2.25;0.93;;;;;;;10.57;85.09;101809.28;4962898;28;20023;-69
2023/03/05 11:22:04;;;;;;;1.95;0.50;;;;;;;10.95;84.14;101805.03;4963416;28;20566;-70
2023/03/05 11:24:30;;;;;;;4.90;0.77;;;;;;;10.51;86.95;101797.09;4963412;28;20104;-68
2023/03/05 11:26:56;;;;;;;1.52;1.02;;;;;;;10.27;90.22;101795.72;4956171;28;20027;-69